sensor_id;sensor_type;location;lat;lon;timestamp;temperature;humidity
52016;DHT22;38032;53.326;6.472;2023-12-04T00:00:49;1.60;99.90
52016;DHT22;38032;53.326;6.472;2023-12-04T00:03:15;1.50;99.90
52016;DHT22;38032;53.326;6.472;2023-12-04T00:05:42;1.50;99.90
52016;DHT22;38032;53.326;6.472;2023-12-04T00:08:09;1.50;99.90
52016;DHT22;38032;53.326;6.472;2023-12-04T00:10:35;1.50;99.90
52016;DHT22;38032;53.326;6.472;2023-12-04T00:13:01;1.50;99.90
52016;DHT22;38032;53.326;6.472;2023-12-04T00:15:27;1.50;99.90
52016;DHT22;38032;53.326;6.472;2023-12-04T00:17:53;1.50;99.90
52016;DHT22;38032;53.326;6.472;2023-12-04T00:20:19;1.50;99.90
52016;DHT22;38032;53.326;6.472;2023-12-04T00:22:45;1.50;99.90
52016;DHT22;38032;53.326;6.472;2023-12-04T00:25:11;1.50;99.90
52016;DHT22;38032;53.326;6.472;2023-12-04T00:27:37;1.50;99.90
52016;DHT22;38032;53.326;6.472;2023-12-04T00:30:03;1.50;99.90
52016;DHT22;38032;53.326;6.472;2023-12-04T00:32:30;1.50;99.90
52016;DHT22;38032;53.326;6.472;2023-12-04T00:34:56;1.50;99.90
52016;DHT22;38032;53.326;6.472;2023-12-04T00:37:21;1.60;99.90
52016;DHT22;38032;53.326;6.472;2023-12-04T00:39:48;1.60;99.90
52016;DHT22;38032;53.326;6.472;2023-12-04T00:42:13;1.60;99.90
52016;DHT22;38032;53.326;6.472;2023-12-04T00:44:39;1.60;99.90
52016;DHT22;38032;53.326;6.472;2023-12-04T00:47:05;1.60;99.90
52016;DHT22;38032;53.326;6.472;2023-12-04T00:49:31;1.60;99.90
52016;DHT22;38032;53.326;6.472;2023-12-04T00:51:57;1.60;99.90
52016;DHT22;38032;53.326;6.472;2023-12-04T00:54:22;1.60;99.90
52016;DHT22;38032;53.326;6.472;2023-12-04T00:56:48;1.60;99.90
52016;DHT22;38032;53.326;6.472;2023-12-04T00:59:14;1.50;99.90
52016;DHT22;38032;53.326;6.472;2023-12-04T01:01:40;1.60;99.90
52016;DHT22;38032;53.326;6.472;2023-12-04T01:04:06;1.50;99.90
52016;DHT22;38032;53.326;6.472;2023-12-04T01:06:31;1.50;99.90
52016;DHT22;38032;53.326;6.472;2023-12-04T01:08:57;1.50;99.90
52016;DHT22;38032;53.326;6.472;2023-12-04T01:11:23;1.50;99.90
52016;DHT22;38032;53.326;6.472;2023-12-04T01:13:49;1.50;99.90
52016;DHT22;38032;53.326;6.472;2023-12-04T01:16:15;1.50;99.90
52016;DHT22;38032;53.326;6.472;2023-12-04T01:18:42;1.50;99.90
52016;DHT22;38032;53.326;6.472;2023-12-04T01:21:08;1.50;99.90
52016;DHT22;38032;53.326;6.472;2023-12-04T01:23:35;1.50;99.90
52016;DHT22;38032;53.326;6.472;2023-12-04T01:26:02;1.50;99.90
52016;DHT22;38032;53.326;6.472;2023-12-04T01:28:27;1.40;99.90
52016;DHT22;38032;53.326;6.472;2023-12-04T01:30:53;1.40;99.90
52016;DHT22;38032;53.326;6.472;2023-12-04T01:33:19;1.40;99.90
52016;DHT22;38032;53.326;6.472;2023-12-04T01:35:45;1.40;99.90
52016;DHT22;38032;53.326;6.472;2023-12-04T01:38:11;1.40;99.90
52016;DHT22;38032;53.326;6.472;2023-12-04T01:40:37;1.50;99.90
52016;DHT22;38032;53.326;6.472;2023-12-04T01:43:02;1.40;99.90
52016;DHT22;38032;53.326;6.472;2023-12-04T01:45:28;1.50;99.90
52016;DHT22;38032;53.326;6.472;2023-12-04T01:47:54;1.50;99.90
52016;DHT22;38032;53.326;6.472;2023-12-04T01:50:20;1.50;99.90
52016;DHT22;38032;53.326;6.472;2023-12-04T01:52:47;1.40;99.90
52016;DHT22;38032;53.326;6.472;2023-12-04T01:55:13;1.40;99.90
52016;DHT22;38032;53.326;6.472;2023-12-04T01:57:40;1.40;99.90
52016;DHT22;38032;53.326;6.472;2023-12-04T02:00:07;1.40;99.90
52016;DHT22;38032;53.326;6.472;2023-12-04T02:02:38;1.50;99.90
52016;DHT22;38032;53.326;6.472;2023-12-04T02:05:07;1.50;99.90
52016;DHT22;38032;53.326;6.472;2023-12-04T02:07:33;1.50;99.90
52016;DHT22;38032;53.326;6.472;2023-12-04T02:09:59;1.50;99.90
52016;DHT22;38032;53.326;6.472;2023-12-04T02:12:25;1.50;99.90
52016;DHT22;38032;53.326;6.472;2023-12-04T02:14:52;1.50;99.90
52016;DHT22;38032;53.326;6.472;2023-12-04T02:17:18;1.50;99.90
52016;DHT22;38032;53.326;6.472;2023-12-04T02:19:45;1.50;99.90
52016;DHT22;38032;53.326;6.472;2023-12-04T02:22:11;1.50;99.90
52016;DHT22;38032;53.326;6.472;2023-12-04T02:24:37;1.50;99.90
52016;DHT22;38032;53.326;6.472;2023-12-04T02:27:18;1.50;99.90
52016;DHT22;38032;53.326;6.472;2023-12-04T02:29:52;1.50;99.90
52016;DHT22;38032;53.326;6.472;2023-12-04T02:32:19;1.50;99.90
52016;DHT22;38032;53.326;6.472;2023-12-04T02:34:47;1.40;99.90
52016;DHT22;38032;53.326;6.472;2023-12-04T02:37:15;1.50;99.90
52016;DHT22;38032;53.326;6.472;2023-12-04T02:39:42;1.50;99.90
52016;DHT22;38032;53.326;6.472;2023-12-04T02:42:09;1.50;99.90
52016;DHT22;38032;53.326;6.472;2023-12-04T02:44:35;1.40;99.90
52016;DHT22;38032;53.326;6.472;2023-12-04T02:47:00;1.40;99.90
52016;DHT22;38032;53.326;6.472;2023-12-04T02:49:26;1.40;99.90
52016;DHT22;38032;53.326;6.472;2023-12-04T02:51:52;1.40;99.90
52016;DHT22;38032;53.326;6.472;2023-12-04T02:54:18;1.40;99.90
52016;DHT22;38032;53.326;6.472;2023-12-04T02:56:43;1.40;99.90
52016;DHT22;38032;53.326;6.472;2023-12-04T02:59:09;1.40;99.90
52016;DHT22;38032;53.326;6.472;2023-12-04T03:01:35;1.40;99.90
52016;DHT22;38032;53.326;6.472;2023-12-04T03:04:01;1.40;99.90
52016;DHT22;38032;53.326;6.472;2023-12-04T03:06:26;1.50;99.90
52016;DHT22;38032;53.326;6.472;2023-12-04T03:08:52;1.50;99.90
52016;DHT22;38032;53.326;6.472;2023-12-04T03:11:18;1.50;99.90
52016;DHT22;38032;53.326;6.472;2023-12-04T03:13:44;1.50;99.90
52016;DHT22;38032;53.326;6.472;2023-12-04T03:16:16;1.50;99.90
52016;DHT22;38032;53.326;6.472;2023-12-04T03:18:43;1.50;99.90
52016;DHT22;38032;53.326;6.472;2023-12-04T03:21:09;1.50;99.90
52016;DHT22;38032;53.326;6.472;2023-12-04T03:23:34;1.50;99.90
52016;DHT22;38032;53.326;6.472;2023-12-04T03:26:00;1.50;99.90
52016;DHT22;38032;53.326;6.472;2023-12-04T03:28:26;1.50;99.90
52016;DHT22;38032;53.326;6.472;2023-12-04T03:30:52;1.50;99.90
52016;DHT22;38032;53.326;6.472;2023-12-04T03:33:17;1.60;99.90
52016;DHT22;38032;53.326;6.472;2023-12-04T03:35:43;1.60;99.90
52016;DHT22;38032;53.326;6.472;2023-12-04T03:38:09;1.60;99.90
52016;DHT22;38032;53.326;6.472;2023-12-04T03:40:35;1.60;99.90
52016;DHT22;38032;53.326;6.472;2023-12-04T03:43:01;1.60;99.90
52016;DHT22;38032;53.326;6.472;2023-12-04T03:45:27;1.60;99.90
52016;DHT22;38032;53.326;6.472;2023-12-04T03:47:53;1.60;99.90
52016;DHT22;38032;53.326;6.472;2023-12-04T03:50:19;1.60;99.90
52016;DHT22;38032;53.326;6.472;2023-12-04T03:52:44;1.60;99.90
52016;DHT22;38032;53.326;6.472;2023-12-04T03:55:10;1.60;99.90
52016;DHT22;38032;53.326;6.472;2023-12-04T03:57:36;1.60;99.90
52016;DHT22;38032;53.326;6.472;2023-12-04T04:00:02;1.60;99.90
52016;DHT22;38032;53.326;6.472;2023-12-04T04:02:28;1.60;99.90
52016;DHT22;38032;53.326;6.472;2023-12-04T04:04:54;1.60;99.90
52016;DHT22;38032;53.326;6.472;2023-12-04T04:07:20;1.60;99.90
52016;DHT22;38032;53.326;6.472;2023-12-04T04:09:46;1.60;99.90
52016;DHT22;38032;53.326;6.472;2023-12-04T04:12:12;1.60;99.90
52016;DHT22;38032;53.326;6.472;2023-12-04T04:14:37;1.60;99.90
52016;DHT22;38032;53.326;6.472;2023-12-04T04:17:04;1.60;99.90
52016;DHT22;38032;53.326;6.472;2023-12-04T04:19:29;1.60;99.90
52016;DHT22;38032;53.326;6.472;2023-12-04T04:21:55;1.60;99.90
52016;DHT22;38032;53.326;6.472;2023-12-04T04:24:21;1.60;99.90
52016;DHT22;38032;53.326;6.472;2023-12-04T04:26:47;1.60;99.90
52016;DHT22;38032;53.326;6.472;2023-12-04T04:29:13;1.60;99.90
52016;DHT22;38032;53.326;6.472;2023-12-04T04:31:38;1.60;99.90
52016;DHT22;38032;53.326;6.472;2023-12-04T04:34:04;1.60;99.90
52016;DHT22;38032;53.326;6.472;2023-12-04T04:36:30;1.70;99.90
52016;DHT22;38032;53.326;6.472;2023-12-04T04:38:56;1.60;99.90
52016;DHT22;38032;53.326;6.472;2023-12-04T04:41:21;1.70;99.90
52016;DHT22;38032;53.326;6.472;2023-12-04T04:43:47;1.70;99.90
52016;DHT22;38032;53.326;6.472;2023-12-04T04:46:13;1.70;99.90
52016;DHT22;38032;53.326;6.472;2023-12-04T04:48:40;1.70;99.90
52016;DHT22;38032;53.326;6.472;2023-12-04T04:51:06;1.70;99.90
52016;DHT22;38032;53.326;6.472;2023-12-04T04:53:32;1.70;99.90
52016;DHT22;38032;53.326;6.472;2023-12-04T04:55:57;1.70;99.90
52016;DHT22;38032;53.326;6.472;2023-12-04T04:58:23;1.60;99.90
52016;DHT22;38032;53.326;6.472;2023-12-04T05:00:49;1.60;99.90
52016;DHT22;38032;53.326;6.472;2023-12-04T05:03:15;1.60;99.90
52016;DHT22;38032;53.326;6.472;2023-12-04T05:05:41;1.60;99.90
52016;DHT22;38032;53.326;6.472;2023-12-04T05:08:07;1.60;99.90
52016;DHT22;38032;53.326;6.472;2023-12-04T05:10:32;1.60;99.90
52016;DHT22;38032;53.326;6.472;2023-12-04T05:12:58;1.60;99.90
52016;DHT22;38032;53.326;6.472;2023-12-04T05:15:24;1.60;99.90
52016;DHT22;38032;53.326;6.472;2023-12-04T05:17:51;1.60;99.90
52016;DHT22;38032;53.326;6.472;2023-12-04T05:20:17;1.60;99.90
52016;DHT22;38032;53.326;6.472;2023-12-04T05:22:43;1.60;99.90
52016;DHT22;38032;53.326;6.472;2023-12-04T05:25:09;1.60;99.90
52016;DHT22;38032;53.326;6.472;2023-12-04T05:27:34;1.60;99.90
52016;DHT22;38032;53.326;6.472;2023-12-04T05:30:00;1.60;99.90
52016;DHT22;38032;53.326;6.472;2023-12-04T05:32:26;1.60;99.90
52016;DHT22;38032;53.326;6.472;2023-12-04T05:34:52;1.60;99.90
52016;DHT22;38032;53.326;6.472;2023-12-04T05:37:17;1.60;99.90
52016;DHT22;38032;53.326;6.472;2023-12-04T05:39:43;1.60;99.90
52016;DHT22;38032;53.326;6.472;2023-12-04T05:42:09;1.60;99.90
52016;DHT22;38032;53.326;6.472;2023-12-04T05:44:35;1.60;99.90
52016;DHT22;38032;53.326;6.472;2023-12-04T05:47:01;1.60;99.90
52016;DHT22;38032;53.326;6.472;2023-12-04T05:49:26;1.60;99.90
52016;DHT22;38032;53.326;6.472;2023-12-04T05:51:54;1.60;99.90
52016;DHT22;38032;53.326;6.472;2023-12-04T05:54:20;1.60;99.90
52016;DHT22;38032;53.326;6.472;2023-12-04T05:56:46;1.60;99.90
52016;DHT22;38032;53.326;6.472;2023-12-04T05:59:12;1.60;99.90
52016;DHT22;38032;53.326;6.472;2023-12-04T06:01:38;1.60;99.90
52016;DHT22;38032;53.326;6.472;2023-12-04T06:04:04;1.60;99.90
52016;DHT22;38032;53.326;6.472;2023-12-04T06:06:29;1.60;99.90
52016;DHT22;38032;53.326;6.472;2023-12-04T06:08:55;1.60;99.90
52016;DHT22;38032;53.326;6.472;2023-12-04T06:11:21;1.50;99.90
52016;DHT22;38032;53.326;6.472;2023-12-04T06:13:47;1.60;99.90
52016;DHT22;38032;53.326;6.472;2023-12-04T06:16:13;1.60;99.90
52016;DHT22;38032;53.326;6.472;2023-12-04T06:18:39;1.60;99.90
52016;DHT22;38032;53.326;6.472;2023-12-04T06:21:05;1.60;99.90
52016;DHT22;38032;53.326;6.472;2023-12-04T06:23:31;1.60;99.90
52016;DHT22;38032;53.326;6.472;2023-12-04T06:25:58;1.60;99.90
52016;DHT22;38032;53.326;6.472;2023-12-04T06:28:24;1.60;99.90
52016;DHT22;38032;53.326;6.472;2023-12-04T06:30:50;1.60;99.90
52016;DHT22;38032;53.326;6.472;2023-12-04T06:33:16;1.60;99.90
52016;DHT22;38032;53.326;6.472;2023-12-04T06:35:44;1.60;99.90
52016;DHT22;38032;53.326;6.472;2023-12-04T06:38:14;1.60;99.90
52016;DHT22;38032;53.326;6.472;2023-12-04T06:40:40;1.70;99.90
52016;DHT22;38032;53.326;6.472;2023-12-04T06:43:06;1.60;99.90
52016;DHT22;38032;53.326;6.472;2023-12-04T06:45:33;1.60;99.90
52016;DHT22;38032;53.326;6.472;2023-12-04T06:47:59;1.60;99.90
52016;DHT22;38032;53.326;6.472;2023-12-04T06:50:26;1.60;99.90
52016;DHT22;38032;53.326;6.472;2023-12-04T06:52:52;1.60;99.90
52016;DHT22;38032;53.326;6.472;2023-12-04T06:55:18;1.50;99.90
52016;DHT22;38032;53.326;6.472;2023-12-04T06:57:43;1.50;99.90
52016;DHT22;38032;53.326;6.472;2023-12-04T07:00:10;1.50;99.90
52016;DHT22;38032;53.326;6.472;2023-12-04T07:02:42;1.50;99.90
52016;DHT22;38032;53.326;6.472;2023-12-04T07:05:08;1.50;99.90
52016;DHT22;38032;53.326;6.472;2023-12-04T07:07:34;1.50;99.90
52016;DHT22;38032;53.326;6.472;2023-12-04T07:10:00;1.50;99.90
52016;DHT22;38032;53.326;6.472;2023-12-04T07:12:26;1.50;99.90
52016;DHT22;38032;53.326;6.472;2023-12-04T07:14:51;1.50;99.90
52016;DHT22;38032;53.326;6.472;2023-12-04T07:17:18;1.50;99.90
52016;DHT22;38032;53.326;6.472;2023-12-04T07:19:43;1.50;99.90
52016;DHT22;38032;53.326;6.472;2023-12-04T07:22:09;1.50;99.90
52016;DHT22;38032;53.326;6.472;2023-12-04T07:24:35;1.50;99.90
52016;DHT22;38032;53.326;6.472;2023-12-04T07:27:01;1.50;99.90
52016;DHT22;38032;53.326;6.472;2023-12-04T07:29:27;1.50;99.90
52016;DHT22;38032;53.326;6.472;2023-12-04T07:31:54;1.50;99.90
52016;DHT22;38032;53.326;6.472;2023-12-04T07:34:20;1.50;99.90
52016;DHT22;38032;53.326;6.472;2023-12-04T07:36:45;1.50;99.90
52016;DHT22;38032;53.326;6.472;2023-12-04T07:39:11;1.50;99.90
52016;DHT22;38032;53.326;6.472;2023-12-04T07:41:37;1.50;99.90
52016;DHT22;38032;53.326;6.472;2023-12-04T07:44:03;1.50;99.90
52016;DHT22;38032;53.326;6.472;2023-12-04T07:46:29;1.50;99.90
52016;DHT22;38032;53.326;6.472;2023-12-04T07:48:55;1.50;99.90
52016;DHT22;38032;53.326;6.472;2023-12-04T07:51:21;1.50;99.90
52016;DHT22;38032;53.326;6.472;2023-12-04T07:53:47;1.50;99.90
52016;DHT22;38032;53.326;6.472;2023-12-04T07:56:13;1.60;99.90
52016;DHT22;38032;53.326;6.472;2023-12-04T07:58:39;1.50;99.90
52016;DHT22;38032;53.326;6.472;2023-12-04T08:01:05;1.60;99.90
52016;DHT22;38032;53.326;6.472;2023-12-04T08:03:31;1.60;99.90
52016;DHT22;38032;53.326;6.472;2023-12-04T08:05:57;1.60;99.90
52016;DHT22;38032;53.326;6.472;2023-12-04T08:08:24;1.60;99.90
52016;DHT22;38032;53.326;6.472;2023-12-04T08:10:50;1.60;99.90
52016;DHT22;38032;53.326;6.472;2023-12-04T08:13:16;1.60;99.90
52016;DHT22;38032;53.326;6.472;2023-12-04T08:15:43;1.60;99.90
52016;DHT22;38032;53.326;6.472;2023-12-04T08:18:09;1.60;99.90
52016;DHT22;38032;53.326;6.472;2023-12-04T08:20:34;1.60;99.90
52016;DHT22;38032;53.326;6.472;2023-12-04T08:23:00;1.70;99.90
52016;DHT22;38032;53.326;6.472;2023-12-04T08:25:26;1.70;99.90
52016;DHT22;38032;53.326;6.472;2023-12-04T08:27:52;1.80;99.90
52016;DHT22;38032;53.326;6.472;2023-12-04T08:30:18;1.80;99.90
52016;DHT22;38032;53.326;6.472;2023-12-04T08:32:44;1.80;99.90
52016;DHT22;38032;53.326;6.472;2023-12-04T08:35:10;1.80;99.90
52016;DHT22;38032;53.326;6.472;2023-12-04T08:37:35;1.90;99.90
52016;DHT22;38032;53.326;6.472;2023-12-04T08:40:01;1.90;99.90
52016;DHT22;38032;53.326;6.472;2023-12-04T08:42:29;1.90;99.90
52016;DHT22;38032;53.326;6.472;2023-12-04T08:44:55;1.90;99.90
52016;DHT22;38032;53.326;6.472;2023-12-04T08:47:21;1.90;99.90
52016;DHT22;38032;53.326;6.472;2023-12-04T08:49:46;2.00;99.90
52016;DHT22;38032;53.326;6.472;2023-12-04T08:52:12;2.00;99.90
52016;DHT22;38032;53.326;6.472;2023-12-04T08:54:40;2.00;99.90
52016;DHT22;38032;53.326;6.472;2023-12-04T08:57:09;2.10;99.90
52016;DHT22;38032;53.326;6.472;2023-12-04T08:59:35;2.10;99.90
52016;DHT22;38032;53.326;6.472;2023-12-04T09:02:01;2.20;99.90
52016;DHT22;38032;53.326;6.472;2023-12-04T09:04:31;2.20;99.90
52016;DHT22;38032;53.326;6.472;2023-12-04T09:06:57;2.20;99.90
52016;DHT22;38032;53.326;6.472;2023-12-04T09:09:23;2.20;99.90
52016;DHT22;38032;53.326;6.472;2023-12-04T09:11:49;2.20;99.90
52016;DHT22;38032;53.326;6.472;2023-12-04T09:14:15;2.30;99.90
52016;DHT22;38032;53.326;6.472;2023-12-04T09:16:41;2.30;99.90
52016;DHT22;38032;53.326;6.472;2023-12-04T09:19:07;2.30;99.90
52016;DHT22;38032;53.326;6.472;2023-12-04T09:21:33;2.40;99.90
52016;DHT22;38032;53.326;6.472;2023-12-04T09:23:59;2.40;99.90
52016;DHT22;38032;53.326;6.472;2023-12-04T09:26:25;2.40;99.90
52016;DHT22;38032;53.326;6.472;2023-12-04T09:28:50;2.50;99.90
52016;DHT22;38032;53.326;6.472;2023-12-04T09:31:16;2.50;99.90
52016;DHT22;38032;53.326;6.472;2023-12-04T09:33:42;2.50;99.90
52016;DHT22;38032;53.326;6.472;2023-12-04T09:36:08;2.50;99.90
52016;DHT22;38032;53.326;6.472;2023-12-04T09:38:34;2.60;99.90
52016;DHT22;38032;53.326;6.472;2023-12-04T09:41:02;2.50;99.90
52016;DHT22;38032;53.326;6.472;2023-12-04T09:43:31;2.60;99.90
52016;DHT22;38032;53.326;6.472;2023-12-04T09:45:58;2.60;99.90
52016;DHT22;38032;53.326;6.472;2023-12-04T09:48:25;2.60;99.90
52016;DHT22;38032;53.326;6.472;2023-12-04T09:50:52;2.50;99.90
52016;DHT22;38032;53.326;6.472;2023-12-04T09:53:18;2.60;99.90
52016;DHT22;38032;53.326;6.472;2023-12-04T09:55:48;2.60;99.90
52016;DHT22;38032;53.326;6.472;2023-12-04T09:58:15;2.60;99.90
52016;DHT22;38032;53.326;6.472;2023-12-04T10:00:43;2.60;99.90
52016;DHT22;38032;53.326;6.472;2023-12-04T10:03:09;2.60;99.90
52016;DHT22;38032;53.326;6.472;2023-12-04T10:05:35;2.60;99.90
52016;DHT22;38032;53.326;6.472;2023-12-04T10:08:00;2.60;99.90
52016;DHT22;38032;53.326;6.472;2023-12-04T10:10:26;2.60;99.90
52016;DHT22;38032;53.326;6.472;2023-12-04T10:12:52;2.60;99.90
52016;DHT22;38032;53.326;6.472;2023-12-04T10:15:18;2.70;99.90
52016;DHT22;38032;53.326;6.472;2023-12-04T10:17:44;2.70;99.90
52016;DHT22;38032;53.326;6.472;2023-12-04T10:20:11;2.70;99.90
52016;DHT22;38032;53.326;6.472;2023-12-04T10:22:52;2.80;99.90
52016;DHT22;38032;53.326;6.472;2023-12-04T10:25:19;2.80;99.90
52016;DHT22;38032;53.326;6.472;2023-12-04T10:27:46;2.90;99.90
52016;DHT22;38032;53.326;6.472;2023-12-04T10:30:29;3.00;99.90
52016;DHT22;38032;53.326;6.472;2023-12-04T10:32:57;3.20;99.90
52016;DHT22;38032;53.326;6.472;2023-12-04T10:35:28;3.30;99.90
52016;DHT22;38032;53.326;6.472;2023-12-04T10:37:56;3.40;99.90
52016;DHT22;38032;53.326;6.472;2023-12-04T10:40:24;3.50;99.90
52016;DHT22;38032;53.326;6.472;2023-12-04T10:42:50;3.60;99.90
52016;DHT22;38032;53.326;6.472;2023-12-04T10:45:16;3.70;99.90
52016;DHT22;38032;53.326;6.472;2023-12-04T10:47:43;3.90;99.90
52016;DHT22;38032;53.326;6.472;2023-12-04T10:50:11;4.10;99.90
52016;DHT22;38032;53.326;6.472;2023-12-04T10:52:39;4.30;99.90
52016;DHT22;38032;53.326;6.472;2023-12-04T10:55:06;4.40;99.90
52016;DHT22;38032;53.326;6.472;2023-12-04T10:57:37;4.60;99.90
52016;DHT22;38032;53.326;6.472;2023-12-04T11:00:04;4.80;99.90
52016;DHT22;38032;53.326;6.472;2023-12-04T11:02:34;5.00;99.90
52016;DHT22;38032;53.326;6.472;2023-12-04T11:05:07;5.10;99.90
52016;DHT22;38032;53.326;6.472;2023-12-04T11:07:41;5.10;99.90
52016;DHT22;38032;53.326;6.472;2023-12-04T11:10:10;5.10;99.90
52016;DHT22;38032;53.326;6.472;2023-12-04T11:12:44;5.00;99.90
52016;DHT22;38032;53.326;6.472;2023-12-04T11:15:14;5.00;99.90
52016;DHT22;38032;53.326;6.472;2023-12-04T11:17:43;4.90;99.90
52016;DHT22;38032;53.326;6.472;2023-12-04T11:20:13;4.80;99.90
52016;DHT22;38032;53.326;6.472;2023-12-04T11:22:43;4.70;99.90
52016;DHT22;38032;53.326;6.472;2023-12-04T11:25:10;4.50;99.90
52016;DHT22;38032;53.326;6.472;2023-12-04T11:27:37;4.40;99.90
52016;DHT22;38032;53.326;6.472;2023-12-04T11:30:03;4.30;99.90
52016;DHT22;38032;53.326;6.472;2023-12-04T11:32:30;4.30;99.90
52016;DHT22;38032;53.326;6.472;2023-12-04T11:34:56;4.20;99.90
52016;DHT22;38032;53.326;6.472;2023-12-04T11:37:25;4.20;99.90
52016;DHT22;38032;53.326;6.472;2023-12-04T11:39:51;4.20;99.90
52016;DHT22;38032;53.326;6.472;2023-12-04T11:42:25;4.10;99.90
52016;DHT22;38032;53.326;6.472;2023-12-04T11:44:57;4.10;99.90
52016;DHT22;38032;53.326;6.472;2023-12-04T11:47:24;4.10;99.90
52016;DHT22;38032;53.326;6.472;2023-12-04T11:49:50;4.10;99.90
52016;DHT22;38032;53.326;6.472;2023-12-04T11:52:15;4.20;99.90
52016;DHT22;38032;53.326;6.472;2023-12-04T11:55:02;4.20;99.90
52016;DHT22;38032;53.326;6.472;2023-12-04T11:57:38;4.30;99.90
52016;DHT22;38032;53.326;6.472;2023-12-04T12:00:12;4.40;99.90
52016;DHT22;38032;53.326;6.472;2023-12-04T12:02:47;4.50;99.90
52016;DHT22;38032;53.326;6.472;2023-12-04T12:05:14;4.50;99.90
52016;DHT22;38032;53.326;6.472;2023-12-04T12:07:40;4.50;99.90
52016;DHT22;38032;53.326;6.472;2023-12-04T12:10:07;4.60;99.90
52016;DHT22;38032;53.326;6.472;2023-12-04T12:12:35;4.60;99.90
52016;DHT22;38032;53.326;6.472;2023-12-04T12:15:02;4.60;99.90
52016;DHT22;38032;53.326;6.472;2023-12-04T12:17:28;4.60;99.90
52016;DHT22;38032;53.326;6.472;2023-12-04T12:19:54;4.50;99.90
52016;DHT22;38032;53.326;6.472;2023-12-04T12:22:23;4.50;99.90
52016;DHT22;38032;53.326;6.472;2023-12-04T12:24:49;4.40;99.90
52016;DHT22;38032;53.326;6.472;2023-12-04T12:27:15;4.30;99.90
52016;DHT22;38032;53.326;6.472;2023-12-04T12:29:41;4.30;99.90
52016;DHT22;38032;53.326;6.472;2023-12-04T12:32:07;4.20;99.90
52016;DHT22;38032;53.326;6.472;2023-12-04T12:34:33;4.10;99.90
52016;DHT22;38032;53.326;6.472;2023-12-04T12:37:03;4.10;99.90
52016;DHT22;38032;53.326;6.472;2023-12-04T12:39:29;4.00;99.90
52016;DHT22;38032;53.326;6.472;2023-12-04T12:44:22;3.00;99.90
52016;DHT22;38032;53.326;6.472;2023-12-04T12:46:49;3.80;99.90
52016;DHT22;38032;53.326;6.472;2023-12-04T12:49:19;4.00;99.90
52016;DHT22;38032;53.326;6.472;2023-12-04T12:51:46;3.90;99.90
52016;DHT22;38032;53.326;6.472;2023-12-04T12:54:12;3.60;99.90
52016;DHT22;38032;53.326;6.472;2023-12-04T12:56:38;3.60;99.90
52016;DHT22;38032;53.326;6.472;2023-12-04T12:59:04;3.50;99.90
52016;DHT22;38032;53.326;6.472;2023-12-04T13:01:32;3.50;99.90
52016;DHT22;38032;53.326;6.472;2023-12-04T13:03:59;3.40;99.90
52016;DHT22;38032;53.326;6.472;2023-12-04T13:06:25;3.40;99.90
52016;DHT22;38032;53.326;6.472;2023-12-04T13:08:51;3.40;99.90
52016;DHT22;38032;53.326;6.472;2023-12-04T13:11:17;3.30;99.90
52016;DHT22;38032;53.326;6.472;2023-12-04T13:13:44;3.30;99.90
52016;DHT22;38032;53.326;6.472;2023-12-04T13:16:10;3.20;99.90
52016;DHT22;38032;53.326;6.472;2023-12-04T13:18:36;3.20;99.90
52016;DHT22;38032;53.326;6.472;2023-12-04T13:21:04;3.20;99.90
52016;DHT22;38032;53.326;6.472;2023-12-04T13:23:29;3.20;99.90
52016;DHT22;38032;53.326;6.472;2023-12-04T13:25:55;3.20;99.90
52016;DHT22;38032;53.326;6.472;2023-12-04T13:28:21;3.20;99.90
52016;DHT22;38032;53.326;6.472;2023-12-04T13:30:47;3.20;99.90
52016;DHT22;38032;53.326;6.472;2023-12-04T13:33:12;3.20;99.90
52016;DHT22;38032;53.326;6.472;2023-12-04T13:35:38;3.20;99.90
52016;DHT22;38032;53.326;6.472;2023-12-04T13:38:04;3.20;99.90
52016;DHT22;38032;53.326;6.472;2023-12-04T13:40:38;3.20;99.90
52016;DHT22;38032;53.326;6.472;2023-12-04T13:43:05;3.30;99.90
52016;DHT22;38032;53.326;6.472;2023-12-04T13:45:50;3.30;99.90
52016;DHT22;38032;53.326;6.472;2023-12-04T13:48:17;3.30;99.90
52016;DHT22;38032;53.326;6.472;2023-12-04T13:50:43;3.80;99.90
52016;DHT22;38032;53.326;6.472;2023-12-04T13:53:09;3.20;99.90
52016;DHT22;38032;53.326;6.472;2023-12-04T13:55:35;3.20;99.90
52016;DHT22;38032;53.326;6.472;2023-12-04T13:58:22;3.20;99.90
52016;DHT22;38032;53.326;6.472;2023-12-04T14:01:05;3.10;99.90
52016;DHT22;38032;53.326;6.472;2023-12-04T14:03:41;3.10;99.90
52016;DHT22;38032;53.326;6.472;2023-12-04T14:06:07;3.10;99.90
52016;DHT22;38032;53.326;6.472;2023-12-04T14:08:33;3.00;99.90
52016;DHT22;38032;53.326;6.472;2023-12-04T14:10:59;2.90;99.90
52016;DHT22;38032;53.326;6.472;2023-12-04T14:13:25;2.90;99.90
52016;DHT22;38032;53.326;6.472;2023-12-04T14:15:50;2.80;99.90
52016;DHT22;38032;53.326;6.472;2023-12-04T14:18:16;2.80;99.90
52016;DHT22;38032;53.326;6.472;2023-12-04T14:20:42;2.70;99.90
52016;DHT22;38032;53.326;6.472;2023-12-04T14:23:08;2.70;99.90
52016;DHT22;38032;53.326;6.472;2023-12-04T14:25:34;2.70;99.90
52016;DHT22;38032;53.326;6.472;2023-12-04T14:27:59;2.60;99.90
52016;DHT22;38032;53.326;6.472;2023-12-04T14:30:26;2.60;99.90
52016;DHT22;38032;53.326;6.472;2023-12-04T14:35:20;2.50;99.90
52016;DHT22;38032;53.326;6.472;2023-12-04T14:37:46;2.40;99.90
52016;DHT22;38032;53.326;6.472;2023-12-04T14:40:13;2.40;99.90
52016;DHT22;38032;53.326;6.472;2023-12-04T14:42:40;2.40;99.90
52016;DHT22;38032;53.326;6.472;2023-12-04T14:45:06;2.40;99.90
52016;DHT22;38032;53.326;6.472;2023-12-04T14:47:32;2.30;99.90
52016;DHT22;38032;53.326;6.472;2023-12-04T14:49:58;2.30;99.90
52016;DHT22;38032;53.326;6.472;2023-12-04T14:52:24;2.30;99.90
52016;DHT22;38032;53.326;6.472;2023-12-04T14:54:54;2.20;99.90
52016;DHT22;38032;53.326;6.472;2023-12-04T14:57:47;2.20;99.90
52016;DHT22;38032;53.326;6.472;2023-12-04T15:00:43;2.10;99.90
52016;DHT22;38032;53.326;6.472;2023-12-04T15:03:18;2.00;99.90
52016;DHT22;38032;53.326;6.472;2023-12-04T15:06:10;2.00;99.90
52016;DHT22;38032;53.326;6.472;2023-12-04T15:08:37;2.00;99.90
52016;DHT22;38032;53.326;6.472;2023-12-04T15:11:21;2.00;99.90
52016;DHT22;38032;53.326;6.472;2023-12-04T15:14:07;2.00;99.90
52016;DHT22;38032;53.326;6.472;2023-12-04T15:16:34;2.00;99.90
52016;DHT22;38032;53.326;6.472;2023-12-04T15:19:05;2.10;99.90
52016;DHT22;38032;53.326;6.472;2023-12-04T15:21:31;2.10;99.90
52016;DHT22;38032;53.326;6.472;2023-12-04T15:23:57;2.10;99.90
52016;DHT22;38032;53.326;6.472;2023-12-04T15:26:23;2.10;99.90
52016;DHT22;38032;53.326;6.472;2023-12-04T15:28:49;2.10;99.90
52016;DHT22;38032;53.326;6.472;2023-12-04T15:31:15;2.10;99.90
52016;DHT22;38032;53.326;6.472;2023-12-04T15:33:41;2.10;99.90
52016;DHT22;38032;53.326;6.472;2023-12-04T15:36:07;2.10;99.90
52016;DHT22;38032;53.326;6.472;2023-12-04T15:38:35;2.10;99.90
52016;DHT22;38032;53.326;6.472;2023-12-04T15:41:01;2.10;99.90
52016;DHT22;38032;53.326;6.472;2023-12-04T15:43:26;2.10;99.90
52016;DHT22;38032;53.326;6.472;2023-12-04T15:45:52;2.10;99.90
52016;DHT22;38032;53.326;6.472;2023-12-04T15:48:18;2.10;99.90